createdAt,value
2018-12-27T00:00:19.055Z,-0.38
2018-12-27T00:02:54.624Z,-0.46
2018-12-27T00:05:18.146Z,-0.45
2018-12-27T00:07:46.982Z,-0.42
2018-12-27T00:10:15.787Z,-0.43
2018-12-27T00:12:45.817Z,-0.36
2018-12-27T00:15:14.651Z,-0.26
2018-12-27T00:18:04.991Z,-0.38
2018-12-27T00:20:54.837Z,-0.34
2018-12-27T00:23:23.675Z,-0.30
2018-12-27T00:26:48.421Z,-0.16
2018-12-27T00:29:17.118Z,-0.23
2018-12-27T00:31:46.031Z,-0.19
2018-12-27T00:34:15.017Z,-0.36
2018-12-27T00:36:46.899Z,-0.38
2018-12-27T00:39:15.801Z,-0.44
2018-12-27T00:41:44.819Z,-0.29
2018-12-27T00:44:13.759Z,-0.14
2018-12-27T00:46:42.699Z,-0.02
2018-12-27T00:49:11.630Z,-0.05
2018-12-27T00:51:40.838Z,-0.12
2018-12-27T00:54:10.888Z,-0.30
2018-12-27T00:56:39.901Z,-0.31
2018-12-27T00:59:08.863Z,-0.27
2018-12-27T01:01:37.808Z,-0.12
2018-12-27T01:04:06.751Z,-0.26
2018-12-27T01:06:37.652Z,-0.19
2018-12-27T01:09:06.740Z,-0.35
2018-12-27T01:11:36.781Z,-0.28
2018-12-27T01:14:05.922Z,-0.35
2018-12-27T01:16:47.725Z,-0.27
2018-12-27T01:19:22.448Z,-0.06
2018-12-27T01:21:51.382Z,-0.16
2018-12-27T01:24:20.371Z,-0.21
2018-12-27T01:26:49.414Z,-0.27
2018-12-27T01:29:18.305Z,-0.32
2018-12-27T01:31:50.641Z,-0.30
2018-12-27T01:34:18.922Z,-0.34
2018-12-27T01:37:01.963Z,-0.28
2018-12-27T01:39:30.902Z,-0.20
2018-12-27T01:42:00.018Z,-0.19
2018-12-27T01:44:29.018Z,-0.39
2018-12-27T01:46:57.983Z,-0.36
2018-12-27T01:49:26.924Z,-0.32
2018-12-27T01:51:55.874Z,-0.19
2018-12-27T01:54:24.873Z,-0.18
2018-12-27T01:56:53.763Z,-0.17
2018-12-27T01:59:22.789Z,-0.07
2018-12-27T02:01:51.714Z,-0.20
2018-12-27T02:04:20.654Z,-0.19
2018-12-27T02:06:49.700Z,-0.33
2018-12-27T02:09:18.626Z,-0.27
2018-12-27T02:11:47.543Z,-0.23
2018-12-27T02:14:16.559Z,-0.15
2018-12-27T02:16:45.467Z,-0.05
2018-12-27T02:19:14.489Z,-0.14
2018-12-27T02:21:43.538Z,-0.26
2018-12-27T02:24:12.503Z,-0.29
2018-12-27T02:26:41.528Z,-0.22
2018-12-27T02:29:10.439Z,-0.15
2018-12-27T02:31:39.430Z,-0.28
2018-12-27T02:34:08.369Z,-0.21
2018-12-27T02:36:37.273Z,-0.17
2018-12-27T02:39:07.473Z,0.01
2018-12-27T02:41:36.430Z,-0.01
2018-12-27T02:44:05.449Z,0.11
2018-12-27T02:46:34.386Z,-0.13
2018-12-27T02:49:03.313Z,-0.23
2018-12-27T02:51:32.261Z,-0.23
2018-12-27T02:54:01.166Z,-0.24
2018-12-27T02:56:30.080Z,-0.28
2018-12-27T02:58:59.032Z,-0.18
2018-12-27T03:01:28.106Z,-0.06
2018-12-27T03:03:57.048Z,-0.17
2018-12-27T03:06:26.006Z,-0.15
2018-12-27T03:08:54.884Z,-0.16
2018-12-27T03:11:23.802Z,-0.12
2018-12-27T03:13:52.735Z,-0.12
2018-12-27T03:16:21.633Z,-0.14
2018-12-27T03:18:50.542Z,-0.19
2018-12-27T03:21:19.476Z,-0.10
2018-12-27T03:23:48.405Z,-0.09
2018-12-27T03:26:17.360Z,-0.17
2018-12-27T03:28:46.237Z,-0.06
2018-12-27T03:31:15.140Z,-0.22
2018-12-27T03:33:52.487Z,-0.31
2018-12-27T03:36:14.719Z,-0.29
2018-12-27T03:38:43.629Z,-0.27
2018-12-27T03:41:12.575Z,-0.11
2018-12-27T03:43:41.502Z,-0.04
2018-12-27T03:46:10.463Z,-0.04
2018-12-27T03:48:39.348Z,-0.10
2018-12-27T03:51:08.292Z,-0.25
2018-12-27T03:53:37.205Z,-0.18
2018-12-27T03:56:06.141Z,-0.16
2018-12-27T03:58:35.152Z,-0.19
2018-12-27T04:01:04.057Z,-0.10
2018-12-27T04:03:32.958Z,-0.03
2018-12-27T04:06:01.851Z,0.02
2018-12-27T04:08:30.741Z,-0.03
2018-12-27T04:10:59.630Z,-0.25
2018-12-27T04:13:28.558Z,-0.20
2018-12-27T04:15:57.186Z,-0.16
2018-12-27T04:18:25.852Z,-0.19
2018-12-27T04:20:54.576Z,-0.30
2018-12-27T04:23:23.307Z,-0.13
2018-12-27T04:25:52.031Z,-0.04
2018-12-27T04:28:20.725Z,-0.17
2018-12-27T04:30:49.567Z,-0.16
2018-12-27T04:33:18.714Z,-0.20
2018-12-27T04:35:49.150Z,-0.08
2018-12-27T04:38:17.908Z,-0.25
2018-12-27T04:40:46.545Z,-0.35
2018-12-27T04:43:15.264Z,-0.36
2018-12-27T04:45:43.902Z,-0.42
2018-12-27T04:48:12.683Z,-0.44
2018-12-27T04:50:41.338Z,-0.34
2018-12-27T04:53:10.080Z,-0.30
2018-12-27T04:55:38.721Z,-0.27
2018-12-27T04:58:07.382Z,-0.43
2018-12-27T05:00:36.052Z,-0.35
2018-12-27T05:03:04.720Z,-0.32
2018-12-27T05:05:33.463Z,-0.36
2018-12-27T05:08:02.124Z,-0.28
2018-12-27T05:10:30.756Z,-0.31
2018-12-27T05:12:59.531Z,-0.31
2018-12-27T05:15:28.170Z,-0.17
2018-12-27T05:17:56.831Z,-0.20
2018-12-27T05:20:25.599Z,-0.13
2018-12-27T05:22:54.274Z,0.07
2018-12-27T05:25:22.923Z,0.15
2018-12-27T05:27:51.594Z,0.33
2018-12-27T05:30:20.240Z,0.15
2018-12-27T05:32:48.925Z,0.12
2018-12-27T05:35:17.560Z,0.18
2018-12-27T05:37:46.246Z,0.19
2018-12-27T05:40:14.920Z,0.00
2018-12-27T05:42:43.569Z,-0.08
2018-12-27T05:45:12.310Z,-0.23
2018-12-27T05:47:41.006Z,-0.19
2018-12-27T05:50:09.705Z,-0.09
2018-12-27T05:52:38.399Z,-0.07
2018-12-27T05:55:07.103Z,-0.06
2018-12-27T05:57:35.780Z,-0.14
2018-12-27T06:00:04.894Z,-0.16
2018-12-27T06:02:33.559Z,-0.24
2018-12-27T06:05:02.317Z,-0.21
2018-12-27T06:07:31.004Z,0.01
2018-12-27T06:09:59.660Z,0.10
2018-12-27T06:12:28.292Z,0.30
2018-12-27T06:14:56.977Z,0.44
2018-12-27T06:17:25.622Z,0.47
2018-12-27T06:19:54.273Z,0.43
2018-12-27T06:22:22.917Z,0.13
2018-12-27T06:24:51.623Z,0.04
2018-12-27T06:27:20.289Z,0.10
2018-12-27T06:29:48.955Z,0.07
2018-12-27T06:32:17.621Z,-0.08
2018-12-27T06:34:46.256Z,-0.10
2018-12-27T06:37:14.950Z,-0.16
2018-12-27T06:39:43.601Z,-0.18
2018-12-27T06:42:12.258Z,-0.19
2018-12-27T06:44:40.915Z,-0.02
2018-12-27T06:47:09.564Z,0.13
2018-12-27T06:49:38.239Z,0.08
2018-12-27T06:52:06.912Z,0.06
2018-12-27T06:54:35.541Z,0.02
2018-12-27T06:57:04.228Z,0.00
2018-12-27T06:59:32.889Z,0.00
2018-12-27T07:02:01.531Z,0.14
2018-12-27T07:04:30.217Z,0.42
2018-12-27T07:06:58.890Z,0.43
2018-12-27T07:09:27.523Z,0.29
2018-12-27T07:11:56.489Z,0.34
2018-12-27T07:14:25.143Z,0.13
2018-12-27T07:16:53.848Z,0.10
2018-12-27T07:19:22.546Z,0.07
2018-12-27T07:21:51.250Z,0.12
2018-12-27T07:24:19.921Z,-0.02
2018-12-27T07:26:48.575Z,0.08
2018-12-27T07:29:17.281Z,0.07
2018-12-27T07:31:45.941Z,-0.05
2018-12-27T07:34:14.599Z,-0.29
2018-12-27T07:36:43.245Z,-0.08
2018-12-27T07:39:11.956Z,0.09
2018-12-27T07:41:40.608Z,0.15
2018-12-27T07:44:09.244Z,-0.01
2018-12-27T07:46:37.881Z,-0.06
2018-12-27T07:49:06.522Z,-0.38
2018-12-27T07:51:35.192Z,-0.47
2018-12-27T07:54:03.893Z,-0.34
2018-12-27T07:56:32.576Z,-0.18
2018-12-27T07:59:01.279Z,-0.20
2018-12-27T08:01:29.953Z,-0.05
2018-12-27T08:03:58.607Z,-0.03
2018-12-27T08:06:27.841Z,-0.04
2018-12-27T08:08:56.680Z,-0.23
2018-12-27T08:11:25.303Z,-0.25
2018-12-27T08:13:54.230Z,-0.27
2018-12-27T08:16:22.888Z,-0.15
2018-12-27T08:18:51.545Z,-0.11
2018-12-27T08:21:20.156Z,-0.06
2018-12-27T08:23:48.815Z,-0.12
2018-12-27T08:26:17.713Z,-0.11
2018-12-27T08:28:46.330Z,-0.15
2018-12-27T08:31:14.982Z,-0.01
2018-12-27T08:33:43.649Z,-0.03
2018-12-27T08:36:12.344Z,-0.08
2018-12-27T08:38:41.052Z,-0.09
2018-12-27T08:41:09.725Z,0.20
2018-12-27T08:43:38.397Z,0.39
2018-12-27T08:46:07.077Z,0.17
2018-12-27T08:48:35.702Z,0.14
2018-12-27T08:51:04.369Z,0.54
2018-12-27T08:53:32.997Z,0.67
2018-12-27T08:56:01.751Z,0.69
2018-12-27T08:58:30.417Z,0.49
2018-12-27T09:00:59.051Z,0.43
2018-12-27T09:03:27.672Z,0.49
2018-12-27T09:05:56.385Z,0.40
2018-12-27T09:08:25.067Z,0.44
2018-12-27T09:10:53.706Z,0.41
2018-12-27T09:13:22.335Z,0.42
2018-12-27T09:15:51.084Z,0.67
2018-12-27T09:18:19.713Z,0.89
2018-12-27T09:20:48.367Z,0.91
2018-12-27T09:23:16.986Z,0.97
2018-12-27T09:25:45.760Z,0.64
2018-12-27T09:28:14.430Z,0.45
2018-12-27T09:30:43.160Z,0.58
2018-12-27T09:33:11.801Z,0.49
2018-12-27T09:35:40.506Z,0.46
2018-12-27T09:38:09.146Z,0.57
2018-12-27T09:40:37.814Z,0.53
2018-12-27T09:43:07.809Z,0.27
2018-12-27T09:53:39.336Z,0.61
2018-12-27T09:59:57.435Z,0.96
2018-12-27T10:06:52.104Z,0.95
2018-12-27T10:09:20.953Z,0.91
2018-12-27T10:12:04.873Z,0.58
2018-12-27T10:14:37.895Z,0.62
2018-12-27T10:37:07.322Z,0.92
2018-12-27T10:37:59.398Z,1.21
2018-12-27T10:40:28.867Z,1.01
2018-12-27T10:42:57.797Z,0.87
2018-12-27T10:45:28.570Z,1.02
2018-12-27T10:48:05.852Z,1.08
2018-12-27T10:50:40.255Z,1.13
2018-12-27T10:53:09.123Z,1.37
2018-12-27T10:55:38.032Z,1.20
2018-12-27T10:58:06.884Z,1.25
2018-12-27T11:00:35.882Z,1.25
2018-12-27T11:03:04.901Z,1.38
2018-12-27T11:05:33.933Z,1.31
2018-12-27T11:08:20.175Z,1.27
2018-12-27T11:10:49.138Z,1.09
2018-12-27T11:13:30.680Z,1.04
2018-12-27T11:15:59.557Z,1.24
2018-12-27T11:18:31.012Z,1.08
2018-12-27T11:20:59.985Z,1.38
2018-12-27T11:23:28.958Z,1.20
2018-12-27T11:25:57.990Z,1.21
2018-12-27T11:28:41.681Z,1.27
2018-12-27T11:31:10.550Z,1.13
2018-12-27T11:33:49.203Z,1.14
2018-12-27T11:36:18.489Z,1.28
2018-12-27T11:38:47.506Z,1.15
2018-12-27T11:41:16.484Z,1.12
2018-12-27T11:43:45.622Z,1.35
2018-12-27T11:46:14.848Z,1.16
2018-12-27T11:48:43.934Z,0.88
2018-12-27T11:51:13.115Z,0.72
2018-12-27T11:53:42.252Z,0.98
2018-12-27T11:56:11.255Z,0.87
2018-12-27T11:58:40.383Z,0.92
2018-12-27T12:01:17.799Z,0.81
2018-12-27T12:03:47.048Z,0.84
2018-12-27T12:06:16.299Z,1.00
2018-12-27T12:08:45.466Z,1.26
2018-12-27T12:11:14.798Z,1.17
2018-12-27T12:13:47.990Z,1.01
2018-12-27T12:16:16.450Z,1.05
2018-12-27T12:18:45.426Z,1.09
2018-12-27T12:21:14.430Z,1.26
2018-12-27T12:23:43.834Z,1.45
2018-12-27T12:26:12.812Z,1.63
2018-12-27T12:28:41.854Z,1.43
2018-12-27T12:31:10.988Z,1.42
2018-12-27T12:33:39.884Z,1.24
2018-12-27T12:36:16.178Z,1.20
2018-12-27T12:38:47.894Z,1.13
2018-12-27T12:41:16.830Z,1.16
2018-12-27T12:43:48.538Z,1.28
2018-12-27T12:46:17.672Z,1.02
2018-12-27T12:48:46.552Z,1.01
2018-12-27T12:51:18.709Z,1.09
2018-12-27T12:53:47.685Z,1.00
2018-12-27T12:56:25.174Z,0.90
2018-12-27T12:58:54.029Z,0.92
2018-12-27T13:01:28.859Z,1.02
2018-12-27T13:03:57.741Z,0.89
2018-12-27T13:06:26.698Z,1.17
2018-12-27T13:08:55.648Z,1.09
2018-12-27T13:11:24.806Z,1.25
2018-12-27T13:13:53.980Z,1.13
2018-12-27T13:16:22.931Z,1.18
2018-12-27T13:18:51.856Z,1.14
2018-12-27T13:21:20.919Z,0.91
2018-12-27T13:23:49.894Z,0.97
2018-12-27T13:26:18.812Z,1.15
2018-12-27T13:28:47.824Z,1.08
2018-12-27T13:31:16.709Z,1.15
2018-12-27T13:33:45.796Z,1.32
2018-12-27T13:36:14.491Z,1.47
2018-12-27T13:38:43.373Z,1.43
2018-12-27T13:41:12.508Z,1.55
2018-12-27T13:43:41.389Z,1.44
2018-12-27T13:46:10.469Z,1.64
2018-12-27T13:48:39.437Z,1.40
2018-12-27T13:51:08.357Z,1.59
2018-12-27T13:53:37.435Z,1.25
2018-12-27T13:56:06.295Z,1.25
2018-12-27T13:58:35.255Z,1.07
2018-12-27T14:01:04.218Z,1.02
2018-12-27T14:03:33.163Z,0.99
2018-12-27T14:06:01.975Z,1.01
2018-12-27T14:08:30.944Z,1.01
2018-12-27T14:10:59.861Z,1.23
2018-12-27T14:13:28.977Z,1.38
2018-12-27T14:15:58.009Z,1.17
2018-12-27T14:18:26.991Z,1.02
2018-12-27T14:20:55.894Z,1.16
2018-12-27T14:23:24.806Z,1.00
2018-12-27T14:25:53.933Z,1.04
2018-12-27T14:28:22.985Z,1.05
2018-12-27T14:30:52.089Z,1.03
2018-12-27T14:33:21.665Z,1.05
2018-12-27T14:35:50.768Z,1.11
2018-12-27T14:38:19.808Z,1.17
2018-12-27T14:40:51.810Z,0.99
2018-12-27T14:43:20.856Z,1.17
2018-12-27T14:45:50.217Z,1.30
2018-12-27T14:48:19.236Z,1.30
2018-12-27T14:50:48.341Z,1.43
2018-12-27T14:53:17.475Z,1.25
2018-12-27T14:55:48.454Z,1.22
2018-12-27T14:58:20.052Z,1.14
2018-12-27T15:00:49.067Z,0.93
2018-12-27T15:03:24.059Z,0.92
2018-12-27T15:05:53.233Z,0.88
2018-12-27T15:08:22.455Z,0.90
2018-12-27T15:10:51.471Z,0.86
2018-12-27T15:13:20.523Z,1.00
2018-12-27T15:15:50.861Z,1.10
2018-12-27T15:18:19.864Z,1.08
2018-12-27T15:20:49.113Z,0.95
2018-12-27T15:23:18.273Z,0.77
2018-12-27T15:25:48.771Z,0.82
2018-12-27T15:28:29.284Z,0.78
2018-12-27T15:31:01.205Z,0.88
2018-12-27T15:33:35.073Z,1.08
2018-12-27T15:36:08.857Z,1.12
2018-12-27T15:38:37.856Z,1.01
2018-12-27T15:41:12.000Z,0.98
2018-12-27T15:44:17.592Z,0.78
2018-12-27T15:46:46.500Z,0.74
2018-12-27T15:49:15.456Z,0.79
2018-12-27T15:51:44.447Z,0.62
2018-12-27T15:54:13.330Z,0.76
2018-12-27T15:57:12.894Z,0.83
2018-12-27T15:59:41.762Z,0.70
2018-12-27T16:02:10.522Z,0.84
2018-12-27T16:04:39.215Z,0.75
2018-12-27T16:07:07.985Z,0.69
2018-12-27T16:09:36.795Z,0.72
2018-12-27T16:12:05.571Z,0.75
2018-12-27T16:14:34.307Z,0.75
2018-12-27T16:17:08.708Z,0.92
2018-12-27T16:19:46.912Z,0.84
2018-12-27T16:22:15.715Z,0.73
2018-12-27T16:24:44.598Z,0.84
2018-12-27T16:27:13.687Z,0.73
2018-12-27T16:29:42.551Z,0.63
2018-12-27T16:32:11.393Z,0.75
2018-12-27T16:34:40.383Z,0.59
2018-12-27T16:37:09.424Z,0.55
2018-12-27T16:39:44.726Z,0.60
2018-12-27T16:42:22.011Z,0.36
2018-12-27T16:45:23.061Z,0.44
2018-12-27T16:48:51.797Z,0.33
2018-12-27T16:54:36.852Z,0.71
2018-12-27T16:57:22.441Z,0.54
2018-12-27T17:03:38.841Z,0.49
2018-12-27T17:06:07.966Z,0.55
2018-12-27T17:08:40.568Z,0.50
2018-12-27T17:28:27.064Z,0.51
2018-12-27T17:42:48.231Z,0.34
2018-12-27T17:51:32.327Z,0.47
2018-12-27T18:02:54.339Z,0.22
2018-12-27T18:05:52.135Z,0.37
2018-12-27T18:08:22.059Z,0.41
2018-12-27T18:10:52.743Z,0.61
2018-12-27T18:13:25.476Z,0.44
2018-12-27T18:16:40.050Z,0.38
2018-12-27T18:23:39.695Z,0.40
2018-12-27T18:26:33.022Z,0.33
2018-12-27T18:29:19.179Z,0.36
2018-12-27T18:32:39.887Z,0.37
2018-12-27T18:46:51.203Z,0.51
2018-12-27T18:49:47.261Z,0.45
2018-12-27T18:52:51.881Z,0.61
2018-12-27T22:11:28.442Z,1.33
2018-12-27T22:46:02.817Z,1.25
2018-12-27T23:20:24.500Z,1.01
2018-12-27T23:37:51.246Z,0.99
2018-12-27T23:40:23.519Z,1.05
2018-12-27T23:42:52.586Z,1.00
2018-12-27T23:45:23.693Z,0.92
2018-12-27T23:47:52.803Z,0.97
2018-12-27T23:50:21.572Z,0.78
2018-12-27T23:52:51.126Z,0.76
2018-12-27T23:55:20.897Z,0.84
2018-12-27T23:57:50.244Z,0.94
